sensor_id;sensor_type;location;lat;lon;timestamp;pressure;altitude;pressure_sealevel;temperature;humidity
13407;BME280;6774;48.208;10.766;2023-08-21T00:00:51;96045.03;;;22.93;83.08
13407;BME280;6774;48.208;10.766;2023-08-21T00:03:21;96046.66;;;22.94;82.88
13407;BME280;6774;48.208;10.766;2023-08-21T00:05:49;96047.00;;;22.98;82.43
13407;BME280;6774;48.208;10.766;2023-08-21T00:08:16;96047.81;;;22.98;82.59
13407;BME280;6774;48.208;10.766;2023-08-21T00:10:44;96044.06;;;22.99;82.81
13407;BME280;6774;48.208;10.766;2023-08-21T00:13:12;96042.69;;;22.97;82.86
13407;BME280;6774;48.208;10.766;2023-08-21T00:15:40;96034.03;;;22.95;82.80
13407;BME280;6774;48.208;10.766;2023-08-21T00:18:09;96041.28;;;22.94;82.80
13407;BME280;6774;48.208;10.766;2023-08-21T00:20:37;96035.31;;;22.87;82.40
13407;BME280;6774;48.208;10.766;2023-08-21T00:23:05;96029.13;;;22.87;82.92
13407;BME280;6774;48.208;10.766;2023-08-21T00:25:33;96036.59;;;22.85;82.88
13407;BME280;6774;48.208;10.766;2023-08-21T00:28:01;96036.03;;;22.83;83.01
13407;BME280;6774;48.208;10.766;2023-08-21T00:30:29;96042.72;;;22.80;83.19
13407;BME280;6774;48.208;10.766;2023-08-21T00:32:57;96042.88;;;22.68;84.25
13407;BME280;6774;48.208;10.766;2023-08-21T00:35:26;96047.28;;;22.58;83.91
13407;BME280;6774;48.208;10.766;2023-08-21T00:37:54;96042.91;;;22.52;84.10
13407;BME280;6774;48.208;10.766;2023-08-21T00:40:22;96036.91;;;22.45;84.43
13407;BME280;6774;48.208;10.766;2023-08-21T00:42:49;96035.28;;;22.43;84.91
13407;BME280;6774;48.208;10.766;2023-08-21T00:45:17;96030.41;;;22.40;85.09
13407;BME280;6774;48.208;10.766;2023-08-21T00:47:45;96030.59;;;22.34;85.21
13407;BME280;6774;48.208;10.766;2023-08-21T00:50:13;96030.25;;;22.30;84.71
13407;BME280;6774;48.208;10.766;2023-08-21T00:52:45;96027.00;;;22.28;84.64
13407;BME280;6774;48.208;10.766;2023-08-21T00:55:13;96024.25;;;22.23;84.59
13407;BME280;6774;48.208;10.766;2023-08-21T00:57:42;96027.38;;;22.15;84.88
13407;BME280;6774;48.208;10.766;2023-08-21T01:00:12;96031.97;;;22.03;85.26
13407;BME280;6774;48.208;10.766;2023-08-21T01:02:40;96030.16;;;21.86;86.24
13407;BME280;6774;48.208;10.766;2023-08-21T01:05:11;96031.44;;;21.84;86.37
13407;BME280;6774;48.208;10.766;2023-08-21T01:07:47;96023.63;;;21.82;86.25
13407;BME280;6774;48.208;10.766;2023-08-21T01:10:22;96027.88;;;21.78;86.62
13407;BME280;6774;48.208;10.766;2023-08-21T01:12:56;96026.25;;;21.77;86.75
13407;BME280;6774;48.208;10.766;2023-08-21T01:15:26;96025.91;;;21.74;86.23
13407;BME280;6774;48.208;10.766;2023-08-21T01:17:54;96030.22;;;21.75;86.44
13407;BME280;6774;48.208;10.766;2023-08-21T01:20:23;96036.41;;;21.75;86.81
13407;BME280;6774;48.208;10.766;2023-08-21T01:22:52;96034.22;;;21.72;86.46
13407;BME280;6774;48.208;10.766;2023-08-21T01:25:22;96044.72;;;21.74;86.41
13407;BME280;6774;48.208;10.766;2023-08-21T01:27:50;96040.66;;;21.71;86.58
13407;BME280;6774;48.208;10.766;2023-08-21T01:30:19;96048.72;;;21.71;87.20
13407;BME280;6774;48.208;10.766;2023-08-21T01:32:53;96048.16;;;21.69;87.22
13407;BME280;6774;48.208;10.766;2023-08-21T01:35:27;96044.91;;;21.67;86.96
13407;BME280;6774;48.208;10.766;2023-08-21T01:37:55;96041.06;;;21.63;86.83
13407;BME280;6774;48.208;10.766;2023-08-21T01:40:25;96044.00;;;21.62;87.58
13407;BME280;6774;48.208;10.766;2023-08-21T01:42:53;96051.63;;;21.53;87.54
13407;BME280;6774;48.208;10.766;2023-08-21T01:45:21;96045.19;;;21.54;87.20
13407;BME280;6774;48.208;10.766;2023-08-21T01:47:50;96048.38;;;21.51;87.57
13407;BME280;6774;48.208;10.766;2023-08-21T01:50:18;96049.44;;;21.50;87.23
13407;BME280;6774;48.208;10.766;2023-08-21T01:52:46;96050.41;;;21.44;87.33
13407;BME280;6774;48.208;10.766;2023-08-21T01:55:14;96061.53;;;21.36;87.22
13407;BME280;6774;48.208;10.766;2023-08-21T01:57:43;96052.81;;;21.28;87.70
13407;BME280;6774;48.208;10.766;2023-08-21T02:00:12;96049.78;;;21.25;87.60
13407;BME280;6774;48.208;10.766;2023-08-21T02:02:40;96057.25;;;21.23;88.10
13407;BME280;6774;48.208;10.766;2023-08-21T02:05:08;96058.34;;;21.10;88.40
13407;BME280;6774;48.208;10.766;2023-08-21T02:07:38;96055.09;;;21.08;88.34
13407;BME280;6774;48.208;10.766;2023-08-21T02:10:07;96063.88;;;21.04;88.28
13407;BME280;6774;48.208;10.766;2023-08-21T02:12:35;96064.09;;;21.02;88.30
13407;BME280;6774;48.208;10.766;2023-08-21T02:15:09;96050.69;;;21.02;88.57
13407;BME280;6774;48.208;10.766;2023-08-21T02:17:37;96059.78;;;21.01;88.93
13407;BME280;6774;48.208;10.766;2023-08-21T02:20:06;96070.53;;;21.01;88.83
13407;BME280;6774;48.208;10.766;2023-08-21T02:22:34;96062.72;;;20.99;89.06
13407;BME280;6774;48.208;10.766;2023-08-21T02:25:02;96063.53;;;21.00;89.61
13407;BME280;6774;48.208;10.766;2023-08-21T02:27:31;96059.78;;;21.01;89.29
13407;BME280;6774;48.208;10.766;2023-08-21T02:29:58;96060.41;;;20.91;89.79
13407;BME280;6774;48.208;10.766;2023-08-21T02:32:30;96062.78;;;20.88;89.35
13407;BME280;6774;48.208;10.766;2023-08-21T02:34:59;96060.56;;;20.85;89.51
13407;BME280;6774;48.208;10.766;2023-08-21T02:37:27;96063.38;;;20.78;89.81
13407;BME280;6774;48.208;10.766;2023-08-21T02:39:55;96057.44;;;20.76;89.74
13407;BME280;6774;48.208;10.766;2023-08-21T02:42:23;96060.59;;;20.73;90.01
13407;BME280;6774;48.208;10.766;2023-08-21T02:44:51;96064.09;;;20.73;90.63
13407;BME280;6774;48.208;10.766;2023-08-21T02:47:18;96062.47;;;20.72;90.30
13407;BME280;6774;48.208;10.766;2023-08-21T02:49:47;96059.19;;;20.70;90.15
13407;BME280;6774;48.208;10.766;2023-08-21T02:52:16;96057.81;;;20.68;90.30
13407;BME280;6774;48.208;10.766;2023-08-21T02:54:44;96067.13;;;20.65;90.38
13407;BME280;6774;48.208;10.766;2023-08-21T02:57:11;96065.66;;;20.58;90.73
13407;BME280;6774;48.208;10.766;2023-08-21T02:59:39;96057.81;;;20.56;90.28
13407;BME280;6774;48.208;10.766;2023-08-21T03:02:07;96068.47;;;20.51;90.04
13407;BME280;6774;48.208;10.766;2023-08-21T03:04:35;96065.22;;;20.49;90.17
13407;BME280;6774;48.208;10.766;2023-08-21T03:07:04;96056.22;;;20.43;89.91
13407;BME280;6774;48.208;10.766;2023-08-21T03:09:32;96058.66;;;20.33;90.37
13407;BME280;6774;48.208;10.766;2023-08-21T03:11:59;96054.47;;;20.26;90.13
13407;BME280;6774;48.208;10.766;2023-08-21T03:14:27;96058.44;;;19.88;89.67
13407;BME280;6774;48.208;10.766;2023-08-21T03:16:55;96058.56;;;19.93;89.12
13407;BME280;6774;48.208;10.766;2023-08-21T03:19:23;96060.91;;;19.89;88.95
13407;BME280;6774;48.208;10.766;2023-08-21T03:21:51;96057.28;;;19.84;89.40
13407;BME280;6774;48.208;10.766;2023-08-21T03:24:20;96058.56;;;19.81;89.65
13407;BME280;6774;48.208;10.766;2023-08-21T03:26:48;96055.97;;;19.75;90.06
13407;BME280;6774;48.208;10.766;2023-08-21T03:29:16;96055.88;;;19.70;90.12
13407;BME280;6774;48.208;10.766;2023-08-21T03:31:46;96051.06;;;19.48;90.76
13407;BME280;6774;48.208;10.766;2023-08-21T03:34:14;96057.56;;;19.52;90.59
13407;BME280;6774;48.208;10.766;2023-08-21T03:36:42;96060.91;;;19.36;90.58
13407;BME280;6774;48.208;10.766;2023-08-21T03:39:11;96058.44;;;19.23;91.29
13407;BME280;6774;48.208;10.766;2023-08-21T03:41:44;96060.78;;;19.01;92.08
13407;BME280;6774;48.208;10.766;2023-08-21T03:44:12;96058.06;;;18.89;91.83
13407;BME280;6774;48.208;10.766;2023-08-21T03:46:40;96055.63;;;18.88;92.03
13407;BME280;6774;48.208;10.766;2023-08-21T03:49:09;96058.78;;;18.96;91.86
13407;BME280;6774;48.208;10.766;2023-08-21T03:51:36;96059.53;;;19.03;91.84
13407;BME280;6774;48.208;10.766;2023-08-21T03:54:04;96070.47;;;19.02;92.26
13407;BME280;6774;48.208;10.766;2023-08-21T03:56:32;96064.41;;;19.07;91.95
13407;BME280;6774;48.208;10.766;2023-08-21T03:59:01;96073.34;;;19.00;91.83
13407;BME280;6774;48.208;10.766;2023-08-21T04:01:29;96065.22;;;19.07;91.31
13407;BME280;6774;48.208;10.766;2023-08-21T04:03:57;96070.13;;;19.10;91.20
13407;BME280;6774;48.208;10.766;2023-08-21T04:06:25;96065.16;;;19.14;90.86
13407;BME280;6774;48.208;10.766;2023-08-21T04:08:52;96072.13;;;19.15;90.98
13407;BME280;6774;48.208;10.766;2023-08-21T04:11:20;96074.56;;;19.16;90.96
13407;BME280;6774;48.208;10.766;2023-08-21T04:13:48;96079.44;;;19.19;91.13
13407;BME280;6774;48.208;10.766;2023-08-21T04:16:17;96079.84;;;19.23;91.24
13407;BME280;6774;48.208;10.766;2023-08-21T04:18:48;96079.38;;;19.26;91.39
13407;BME280;6774;48.208;10.766;2023-08-21T04:21:18;96083.66;;;19.27;91.29
13407;BME280;6774;48.208;10.766;2023-08-21T04:23:45;96081.13;;;19.32;91.21
13407;BME280;6774;48.208;10.766;2023-08-21T04:26:13;96083.59;;;19.33;91.45
13407;BME280;6774;48.208;10.766;2023-08-21T04:28:41;96091.53;;;19.40;91.34
13407;BME280;6774;48.208;10.766;2023-08-21T04:31:09;96090.59;;;19.46;91.22
13407;BME280;6774;48.208;10.766;2023-08-21T04:33:38;96095.03;;;19.52;91.51
13407;BME280;6774;48.208;10.766;2023-08-21T04:36:07;96087.59;;;19.54;91.49
13407;BME280;6774;48.208;10.766;2023-08-21T04:38:34;96090.44;;;19.59;91.07
13407;BME280;6774;48.208;10.766;2023-08-21T04:41:07;96090.34;;;19.66;91.13
13407;BME280;6774;48.208;10.766;2023-08-21T04:43:38;96096.75;;;19.77;90.97
13407;BME280;6774;48.208;10.766;2023-08-21T04:46:07;96092.78;;;19.79;90.42
13407;BME280;6774;48.208;10.766;2023-08-21T04:48:40;96095.72;;;19.78;89.82
13407;BME280;6774;48.208;10.766;2023-08-21T04:51:08;96101.41;;;19.70;90.33
13407;BME280;6774;48.208;10.766;2023-08-21T04:53:36;96101.41;;;19.70;90.22
13407;BME280;6774;48.208;10.766;2023-08-21T04:56:09;96100.50;;;19.76;89.70
13407;BME280;6774;48.208;10.766;2023-08-21T04:58:37;96102.22;;;19.82;89.04
13407;BME280;6774;48.208;10.766;2023-08-21T05:01:06;96107.47;;;19.77;89.02
13407;BME280;6774;48.208;10.766;2023-08-21T05:03:40;96110.16;;;19.77;89.16
13407;BME280;6774;48.208;10.766;2023-08-21T05:06:08;96110.00;;;19.72;88.83
13407;BME280;6774;48.208;10.766;2023-08-21T05:08:36;96113.97;;;19.39;90.09
13407;BME280;6774;48.208;10.766;2023-08-21T05:11:06;96116.41;;;19.11;92.14
13407;BME280;6774;48.208;10.766;2023-08-21T05:13:36;96122.44;;;19.36;91.56
13407;BME280;6774;48.208;10.766;2023-08-21T05:16:07;96115.97;;;19.55;91.39
13407;BME280;6774;48.208;10.766;2023-08-21T05:18:37;96127.94;;;19.71;90.66
13407;BME280;6774;48.208;10.766;2023-08-21T05:21:07;96115.16;;;19.85;90.92
13407;BME280;6774;48.208;10.766;2023-08-21T05:23:35;96121.78;;;19.82;91.65
13407;BME280;6774;48.208;10.766;2023-08-21T05:26:06;96126.72;;;19.97;92.10
13407;BME280;6774;48.208;10.766;2023-08-21T05:28:34;96121.81;;;20.17;91.34
13407;BME280;6774;48.208;10.766;2023-08-21T05:31:02;96121.13;;;20.34;91.67
13407;BME280;6774;48.208;10.766;2023-08-21T05:33:42;96107.88;;;20.51;91.03
13407;BME280;6774;48.208;10.766;2023-08-21T05:36:11;96114.34;;;20.66;90.49
13407;BME280;6774;48.208;10.766;2023-08-21T05:38:39;96119.16;;;20.64;90.84
13407;BME280;6774;48.208;10.766;2023-08-21T05:41:07;96120.63;;;20.84;90.37
13407;BME280;6774;48.208;10.766;2023-08-21T05:43:35;96123.50;;;21.06;89.36
13407;BME280;6774;48.208;10.766;2023-08-21T05:46:05;96124.88;;;21.08;89.69
13407;BME280;6774;48.208;10.766;2023-08-21T05:48:33;96124.84;;;21.32;88.79
13407;BME280;6774;48.208;10.766;2023-08-21T05:51:01;96125.69;;;21.49;88.48
13407;BME280;6774;48.208;10.766;2023-08-21T05:53:32;96129.25;;;21.54;87.48
13407;BME280;6774;48.208;10.766;2023-08-21T05:56:01;96133.81;;;21.54;88.13
13407;BME280;6774;48.208;10.766;2023-08-21T05:58:29;96133.34;;;21.57;88.29
13407;BME280;6774;48.208;10.766;2023-08-21T06:00:59;96123.78;;;21.78;87.55
13407;BME280;6774;48.208;10.766;2023-08-21T06:03:29;96126.78;;;21.81;86.80
13407;BME280;6774;48.208;10.766;2023-08-21T06:06:13;96132.66;;;21.78;86.40
13407;BME280;6774;48.208;10.766;2023-08-21T06:08:42;96126.22;;;21.96;85.86
13407;BME280;6774;48.208;10.766;2023-08-21T06:11:10;96127.50;;;22.22;85.71
13407;BME280;6774;48.208;10.766;2023-08-21T06:13:38;96128.75;;;22.36;84.19
13407;BME280;6774;48.208;10.766;2023-08-21T06:16:06;96136.97;;;22.47;84.42
13407;BME280;6774;48.208;10.766;2023-08-21T06:18:36;96132.69;;;22.67;83.13
13407;BME280;6774;48.208;10.766;2023-08-21T06:21:04;96135.13;;;22.86;82.77
13407;BME280;6774;48.208;10.766;2023-08-21T06:23:32;96134.25;;;23.02;80.50
13407;BME280;6774;48.208;10.766;2023-08-21T06:26:01;96132.31;;;23.19;80.70
13407;BME280;6774;48.208;10.766;2023-08-21T06:28:29;96135.00;;;23.41;80.80
13407;BME280;6774;48.208;10.766;2023-08-21T06:30:57;96140.63;;;23.62;80.57
13407;BME280;6774;48.208;10.766;2023-08-21T06:33:25;96142.06;;;23.74;80.27
13407;BME280;6774;48.208;10.766;2023-08-21T06:35:53;96143.78;;;23.86;79.60
13407;BME280;6774;48.208;10.766;2023-08-21T06:38:21;96139.91;;;24.03;79.05
13407;BME280;6774;48.208;10.766;2023-08-21T06:40:49;96138.63;;;24.11;77.97
13407;BME280;6774;48.208;10.766;2023-08-21T06:43:18;96144.94;;;24.27;77.61
13407;BME280;6774;48.208;10.766;2023-08-21T06:45:49;96134.72;;;24.29;77.46
13407;BME280;6774;48.208;10.766;2023-08-21T06:48:17;96142.47;;;24.52;77.01
13407;BME280;6774;48.208;10.766;2023-08-21T06:50:45;96142.25;;;24.64;77.29
13407;BME280;6774;48.208;10.766;2023-08-21T06:53:13;96143.44;;;24.83;76.65
13407;BME280;6774;48.208;10.766;2023-08-21T06:55:40;96149.22;;;24.97;76.87
13407;BME280;6774;48.208;10.766;2023-08-21T06:58:08;96143.63;;;25.14;76.36
13407;BME280;6774;48.208;10.766;2023-08-21T07:00:37;96140.72;;;25.26;75.26
13407;BME280;6774;48.208;10.766;2023-08-21T07:03:05;96146.13;;;25.31;74.24
13407;BME280;6774;48.208;10.766;2023-08-21T07:05:34;96149.41;;;25.48;73.55
13407;BME280;6774;48.208;10.766;2023-08-21T07:08:02;96145.94;;;25.63;74.43
13407;BME280;6774;48.208;10.766;2023-08-21T07:10:35;96146.56;;;25.80;73.68
13407;BME280;6774;48.208;10.766;2023-08-21T07:13:03;96147.38;;;25.91;72.37
13407;BME280;6774;48.208;10.766;2023-08-21T07:15:31;96144.63;;;25.75;72.88
13407;BME280;6774;48.208;10.766;2023-08-21T07:18:00;96144.94;;;25.99;72.67
13407;BME280;6774;48.208;10.766;2023-08-21T07:20:28;96148.75;;;26.08;72.80
13407;BME280;6774;48.208;10.766;2023-08-21T07:22:56;96145.22;;;26.23;72.43
13407;BME280;6774;48.208;10.766;2023-08-21T07:25:23;96140.34;;;26.35;72.41
13407;BME280;6774;48.208;10.766;2023-08-21T07:27:54;96143.06;;;26.51;72.07
13407;BME280;6774;48.208;10.766;2023-08-21T07:30:22;96134.94;;;26.51;72.98
13407;BME280;6774;48.208;10.766;2023-08-21T07:35:30;96124.34;;;26.75;71.56
13407;BME280;6774;48.208;10.766;2023-08-21T07:37:58;96142.41;;;27.00;71.32
13407;BME280;6774;48.208;10.766;2023-08-21T07:40:26;96135.31;;;27.19;69.44
13407;BME280;6774;48.208;10.766;2023-08-21T07:42:54;96141.56;;;27.19;70.60
13407;BME280;6774;48.208;10.766;2023-08-21T07:45:21;96139.59;;;27.35;67.77
13407;BME280;6774;48.208;10.766;2023-08-21T07:47:49;96139.75;;;27.54;67.53
13407;BME280;6774;48.208;10.766;2023-08-21T07:50:38;96142.06;;;27.81;67.33
13407;BME280;6774;48.208;10.766;2023-08-21T07:53:06;96139.03;;;27.88;68.31
13407;BME280;6774;48.208;10.766;2023-08-21T07:55:34;96136.09;;;28.18;67.24
13407;BME280;6774;48.208;10.766;2023-08-21T07:58:02;96152.03;;;28.25;67.72
13407;BME280;6774;48.208;10.766;2023-08-21T08:00:31;96156.28;;;28.41;66.25
13407;BME280;6774;48.208;10.766;2023-08-21T08:02:59;96155.28;;;28.27;65.33
13407;BME280;6774;48.208;10.766;2023-08-21T08:05:27;96152.13;;;28.15;64.10
13407;BME280;6774;48.208;10.766;2023-08-21T08:07:56;96160.09;;;28.69;64.38
13407;BME280;6774;48.208;10.766;2023-08-21T08:10:24;96155.25;;;28.95;65.07
13407;BME280;6774;48.208;10.766;2023-08-21T08:12:52;96160.03;;;29.03;63.45
13407;BME280;6774;48.208;10.766;2023-08-21T08:15:20;96161.72;;;29.23;63.25
13407;BME280;6774;48.208;10.766;2023-08-21T08:17:47;96159.47;;;29.54;61.81
13407;BME280;6774;48.208;10.766;2023-08-21T08:20:18;96159.91;;;29.80;61.99
13407;BME280;6774;48.208;10.766;2023-08-21T08:22:46;96159.78;;;29.90;59.66
13407;BME280;6774;48.208;10.766;2023-08-21T08:25:16;96158.09;;;30.13;58.63
13407;BME280;6774;48.208;10.766;2023-08-21T08:27:44;96153.91;;;30.35;61.73
13407;BME280;6774;48.208;10.766;2023-08-21T08:30:12;96151.94;;;30.54;60.83
13407;BME280;6774;48.208;10.766;2023-08-21T08:32:42;96152.88;;;30.82;58.65
13407;BME280;6774;48.208;10.766;2023-08-21T08:35:12;96149.63;;;30.94;58.62
13407;BME280;6774;48.208;10.766;2023-08-21T08:37:40;96159.97;;;31.10;56.83
13407;BME280;6774;48.208;10.766;2023-08-21T08:40:09;96150.06;;;31.01;56.22
13407;BME280;6774;48.208;10.766;2023-08-21T08:42:38;96149.75;;;31.16;57.04
13407;BME280;6774;48.208;10.766;2023-08-21T08:45:07;96151.66;;;31.57;56.37
13407;BME280;6774;48.208;10.766;2023-08-21T08:47:35;96149.63;;;31.76;56.43
13407;BME280;6774;48.208;10.766;2023-08-21T08:50:04;96156.00;;;31.58;53.92
13407;BME280;6774;48.208;10.766;2023-08-21T08:52:35;96153.09;;;32.04;53.47
13407;BME280;6774;48.208;10.766;2023-08-21T08:55:04;96159.47;;;31.99;51.41
13407;BME280;6774;48.208;10.766;2023-08-21T08:57:33;96158.38;;;32.45;51.58
13407;BME280;6774;48.208;10.766;2023-08-21T09:00:04;96155.53;;;32.50;52.89
13407;BME280;6774;48.208;10.766;2023-08-21T09:02:32;96152.31;;;32.48;52.83
13407;BME280;6774;48.208;10.766;2023-08-21T09:05:00;96155.22;;;33.05;51.94
13407;BME280;6774;48.208;10.766;2023-08-21T09:07:28;96151.34;;;33.46;52.29
13407;BME280;6774;48.208;10.766;2023-08-21T09:09:56;96151.41;;;33.81;52.39
13407;BME280;6774;48.208;10.766;2023-08-21T09:12:24;96154.19;;;34.07;51.18
13407;BME280;6774;48.208;10.766;2023-08-21T09:14:51;96152.75;;;34.44;51.44
13407;BME280;6774;48.208;10.766;2023-08-21T09:17:21;96151.56;;;34.71;50.79
13407;BME280;6774;48.208;10.766;2023-08-21T09:19:50;96143.63;;;34.87;47.69
13407;BME280;6774;48.208;10.766;2023-08-21T09:22:18;96147.22;;;35.17;49.91
13407;BME280;6774;48.208;10.766;2023-08-21T09:25:00;96152.16;;;35.41;48.97
13407;BME280;6774;48.208;10.766;2023-08-21T09:27:33;96137.59;;;35.70;48.13
13407;BME280;6774;48.208;10.766;2023-08-21T09:30:03;96138.31;;;35.87;47.02
13407;BME280;6774;48.208;10.766;2023-08-21T09:32:52;96137.34;;;35.83;46.10
13407;BME280;6774;48.208;10.766;2023-08-21T09:35:21;96136.75;;;35.78;43.91
13407;BME280;6774;48.208;10.766;2023-08-21T09:37:49;96128.34;;;35.74;46.03
13407;BME280;6774;48.208;10.766;2023-08-21T09:40:19;96135.72;;;35.82;45.98
13407;BME280;6774;48.208;10.766;2023-08-21T09:42:51;96127.91;;;35.93;43.34
13407;BME280;6774;48.208;10.766;2023-08-21T09:45:22;96125.50;;;35.92;44.78
13407;BME280;6774;48.208;10.766;2023-08-21T09:47:52;96130.38;;;35.86;44.49
13407;BME280;6774;48.208;10.766;2023-08-21T09:50:21;96116.34;;;35.87;45.23
13407;BME280;6774;48.208;10.766;2023-08-21T09:52:49;96116.75;;;35.98;44.21
13407;BME280;6774;48.208;10.766;2023-08-21T09:55:18;96119.88;;;36.09;45.21
13407;BME280;6774;48.208;10.766;2023-08-21T09:57:48;96111.66;;;36.21;45.56
13407;BME280;6774;48.208;10.766;2023-08-21T10:00:23;96123.69;;;36.37;45.33
13407;BME280;6774;48.208;10.766;2023-08-21T10:02:53;96118.50;;;36.69;44.59
13407;BME280;6774;48.208;10.766;2023-08-21T10:05:21;96109.22;;;36.61;43.40
13407;BME280;6774;48.208;10.766;2023-08-21T10:07:50;96114.91;;;36.56;44.66
13407;BME280;6774;48.208;10.766;2023-08-21T10:10:17;96114.81;;;36.53;44.94
13407;BME280;6774;48.208;10.766;2023-08-21T10:12:45;96110.91;;;36.54;46.08
13407;BME280;6774;48.208;10.766;2023-08-21T10:15:13;96105.50;;;36.90;45.48
13407;BME280;6774;48.208;10.766;2023-08-21T10:17:43;96108.50;;;36.97;44.54
13407;BME280;6774;48.208;10.766;2023-08-21T10:20:12;96105.06;;;37.13;44.09
13407;BME280;6774;48.208;10.766;2023-08-21T10:22:43;96103.00;;;37.22;44.73
13407;BME280;6774;48.208;10.766;2023-08-21T10:25:15;96100.03;;;37.15;43.12
13407;BME280;6774;48.208;10.766;2023-08-21T10:27:43;96097.72;;;37.05;43.70
13407;BME280;6774;48.208;10.766;2023-08-21T10:30:20;96105.28;;;37.20;43.74
13407;BME280;6774;48.208;10.766;2023-08-21T10:32:49;96095.47;;;37.31;44.28
13407;BME280;6774;48.208;10.766;2023-08-21T10:35:20;96100.28;;;37.34;43.76
13407;BME280;6774;48.208;10.766;2023-08-21T10:38:08;96101.88;;;37.35;44.28
13407;BME280;6774;48.208;10.766;2023-08-21T10:40:37;96087.97;;;37.44;43.69
13407;BME280;6774;48.208;10.766;2023-08-21T10:43:37;96090.47;;;37.49;44.39
13407;BME280;6774;48.208;10.766;2023-08-21T10:46:05;96100.59;;;37.45;44.24
13407;BME280;6774;48.208;10.766;2023-08-21T10:48:33;96099.13;;;37.35;44.99
13407;BME280;6774;48.208;10.766;2023-08-21T10:51:04;96095.47;;;37.31;44.76
13407;BME280;6774;48.208;10.766;2023-08-21T10:53:33;96089.47;;;37.17;45.40
13407;BME280;6774;48.208;10.766;2023-08-21T10:56:01;96099.78;;;37.44;48.50
13407;BME280;6774;48.208;10.766;2023-08-21T10:58:34;96087.59;;;37.57;47.74
13407;BME280;6774;48.208;10.766;2023-08-21T11:01:02;96101.38;;;37.70;48.10
13407;BME280;6774;48.208;10.766;2023-08-21T11:03:30;96097.44;;;37.83;47.50
13407;BME280;6774;48.208;10.766;2023-08-21T11:06:04;96093.91;;;37.82;46.93
13407;BME280;6774;48.208;10.766;2023-08-21T11:08:32;96097.00;;;37.56;47.25
13407;BME280;6774;48.208;10.766;2023-08-21T11:11:02;96099.56;;;37.49;48.17
13407;BME280;6774;48.208;10.766;2023-08-21T11:13:30;96093.78;;;37.67;49.17
13407;BME280;6774;48.208;10.766;2023-08-21T11:15:59;96097.00;;;37.56;46.28
13407;BME280;6774;48.208;10.766;2023-08-21T11:18:30;96102.66;;;37.60;48.02
13407;BME280;6774;48.208;10.766;2023-08-21T11:21:07;96092.44;;;37.24;47.92
13407;BME280;6774;48.208;10.766;2023-08-21T11:23:37;96096.59;;;37.06;46.90
13407;BME280;6774;48.208;10.766;2023-08-21T11:26:05;96106.66;;;36.89;47.07
13407;BME280;6774;48.208;10.766;2023-08-21T11:28:46;96090.34;;;36.84;49.49
13407;BME280;6774;48.208;10.766;2023-08-21T11:31:15;96098.81;;;36.67;48.89
13407;BME280;6774;48.208;10.766;2023-08-21T11:33:49;96089.88;;;36.70;47.83
13407;BME280;6774;48.208;10.766;2023-08-21T11:36:19;96090.56;;;36.67;47.50
13407;BME280;6774;48.208;10.766;2023-08-21T11:38:58;96087.91;;;36.58;47.55
13407;BME280;6774;48.208;10.766;2023-08-21T11:41:26;96084.09;;;36.51;47.20
13407;BME280;6774;48.208;10.766;2023-08-21T11:44:01;96084.84;;;36.06;50.20
13407;BME280;6774;48.208;10.766;2023-08-21T11:46:30;96089.38;;;36.02;50.52
13407;BME280;6774;48.208;10.766;2023-08-21T11:49:00;96088.03;;;35.87;48.49
13407;BME280;6774;48.208;10.766;2023-08-21T11:51:38;96082.69;;;35.70;49.59
13407;BME280;6774;48.208;10.766;2023-08-21T11:54:06;96083.28;;;35.75;47.79
13407;BME280;6774;48.208;10.766;2023-08-21T11:56:33;96088.13;;;35.57;49.94
13407;BME280;6774;48.208;10.766;2023-08-21T11:59:04;96078.81;;;35.50;48.85
13407;BME280;6774;48.208;10.766;2023-08-21T12:01:33;96071.69;;;34.90;48.35
13407;BME280;6774;48.208;10.766;2023-08-21T12:04:01;96078.00;;;35.11;48.24
13407;BME280;6774;48.208;10.766;2023-08-21T12:06:44;96070.91;;;35.10;48.50
13407;BME280;6774;48.208;10.766;2023-08-21T12:09:12;96069.69;;;34.99;48.67
13407;BME280;6774;48.208;10.766;2023-08-21T12:11:40;96073.56;;;34.98;48.43
13407;BME280;6774;48.208;10.766;2023-08-21T12:14:08;96072.06;;;35.09;48.38
13407;BME280;6774;48.208;10.766;2023-08-21T12:16:36;96062.50;;;35.15;47.32
13407;BME280;6774;48.208;10.766;2023-08-21T12:19:04;96062.22;;;35.08;48.33
13407;BME280;6774;48.208;10.766;2023-08-21T12:21:34;96065.78;;;35.09;48.58
13407;BME280;6774;48.208;10.766;2023-08-21T12:24:05;96068.09;;;34.98;48.34
13407;BME280;6774;48.208;10.766;2023-08-21T12:26:34;96055.22;;;34.90;47.52
13407;BME280;6774;48.208;10.766;2023-08-21T12:29:14;96060.72;;;34.90;47.74
13407;BME280;6774;48.208;10.766;2023-08-21T12:31:41;96057.97;;;34.81;48.96
13407;BME280;6774;48.208;10.766;2023-08-21T12:34:09;96061.06;;;34.79;47.70
13407;BME280;6774;48.208;10.766;2023-08-21T12:36:37;96057.84;;;34.77;48.43
13407;BME280;6774;48.208;10.766;2023-08-21T12:39:07;96046.41;;;34.75;48.49
13407;BME280;6774;48.208;10.766;2023-08-21T12:41:35;96053.28;;;34.82;48.06
13407;BME280;6774;48.208;10.766;2023-08-21T12:44:03;96050.53;;;34.90;49.88
13407;BME280;6774;48.208;10.766;2023-08-21T12:46:35;96050.50;;;34.99;48.98
13407;BME280;6774;48.208;10.766;2023-08-21T12:49:03;96046.91;;;35.07;48.49
13407;BME280;6774;48.208;10.766;2023-08-21T12:51:31;96051.53;;;35.15;49.17
13407;BME280;6774;48.208;10.766;2023-08-21T12:53:59;96040.84;;;35.22;49.57
13407;BME280;6774;48.208;10.766;2023-08-21T12:56:28;96046.06;;;35.15;49.34
13407;BME280;6774;48.208;10.766;2023-08-21T12:58:55;96043.03;;;35.08;47.36
13407;BME280;6774;48.208;10.766;2023-08-21T13:01:23;96030.78;;;35.05;49.33
13407;BME280;6774;48.208;10.766;2023-08-21T13:03:51;96034.78;;;35.08;50.08
13407;BME280;6774;48.208;10.766;2023-08-21T13:06:19;96030.78;;;35.05;49.53
13407;BME280;6774;48.208;10.766;2023-08-21T13:08:46;96021.88;;;35.09;51.06
13407;BME280;6774;48.208;10.766;2023-08-21T13:11:15;96032.09;;;34.99;50.63
13407;BME280;6774;48.208;10.766;2023-08-21T13:13:44;96029.22;;;34.96;50.02